Aérodrome :
LOGIN :

S'inscrire | Disclaimer

   EN    FR    IT 

 










Légende :    VFR   VFR Marginal   IFR   IFR Intensif   IFR Très Intensif
Visi : 
Plafond : 
>= 8 km
>= 3000ft
5 à 8 km
1000 à 3000 ft
1500m à 5 km
500 à 1000 ft
800 à 1500m
200 à 500 ft
< 800m
< 200 ft
Symboles :   Orages  Brouillard  Fortes neiges  Fortes précipitations  Vent > 20 kt
SIGMETs :   Divers  Orages  Givrage  Turbulence  Onde Orograph.  Cendres Volcan.






- Altitude de l'aérodrome : 55 ft
- Code IATA : DSA


EGCN - Robin Hood Doncaster Sheffield

DERNIER METAR :
  • 151920Z 14004KT 9999 FEW020 BKN025 11/09 Q1004

METARs EXPIRÉS :
  • 151850Z 19004KT 150V210 9999 BKN019 11/09 Q1004
  • 151820Z 21008KT 9999 BKN019 12/09 Q1004
  • 151750Z 20008KT 9999 BKN023 12/09 Q1004
  • 151720Z 17004KT 9999 BKN026 12/10 Q1004
  • 151650Z 19006KT 9999 BKN025 12/09 Q1003

TAF TAF EGCN
Valide du 15 à 18h jusqu'au 16 à 18h UTC


151655Z 1518/1618 20005KT 9999 SCT025
PROB30
TEMPO 1600/1603 BKN009
BECMG 1603/1606 BKN009
TEMPO 1603/1610 8000 -RA
PROB40
TEMPO 1604/1610 3000 +RA BKN002
BECMG 1610/1613 26010KT SCT009



MET'MAP, la Météo Aéronautique d'un coup d'oeil ! - Copyright ORBIFLY Décembre 2007 - Disclaimer

ORBIFLY MET'MAP TEAM :

Programmation & Développement : Alexandra Zaïnal
Conception & Développement : Baudouin d'Aumeries
Co-Programmation & Développement : Marc-Olivier Méhu
Soutien technique & logistique : Manuel Goepfert

Contact : metmap@orbifly.com




SOURCES & CREDITS :

   NOAA